Lewistown, Montana
Current Conditions -  °F | °C
As of 12:54 PM on Saturday 25 Oct 2014 (Local Time) from KLWT Reporting Station
Clear Clear  
Wind Chill: 19°   Ceiling: Unl
Heat Index: 19°   Visibility: 10mi
Dew Point:   Wind: 3mph
Humidity: 40%   Direction: NA
Pressure: 29.86"   Gusts: NA
Location:  47.07°N, 109.42°W
Report Text: KLWT 251854Z AUTO VRB03KT 10SM CLR 19/06 A2986 RMK AO2 SLP097 T01940056
Loading
Personal Weather Stations






























Interactive Weather Map New forecast layout! Learn more

10-Day Weather Forecast

Advertisements
Track Severe Weather on mobile